Time;durP1;ratioP1;P1;durP2;ratioP2;P2;SDS_P1;SDS_P2;PMS_P1;PMS_P2;Temp;Humidity;BMP_temperature;BMP_pressure;BME280_temperature;BME280_humidity;BME280_pressure;Samples;Min_cycle;Max_cycle;Signal;HPM_P1;HPM_P2
2023/08/28 00:00:03;;;;;;;39.85;16.60;;;;;;;29.92;73.19;100529.09;4913324;28;66394;-33
2023/08/28 00:02:33;;;;;;;26.85;14.77;;;;;;;30.03;73.81;100552.72;4920261;28;71777;-34
2023/08/28 00:05:04;;;;;;;34.22;15.27;;;;;;;30.07;74.94;100551.22;4910150;28;66716;-33
2023/08/28 00:07:34;;;;;;;34.20;12.43;;;;;;;30.11;75.56;100562.41;4912198;28;69650;-37
2023/08/28 00:10:04;;;;;;;37.22;13.50;;;;;;;30.09;73.58;100557.25;4917223;28;66086;-33
2023/08/28 00:12:39;;;;;;;34.92;14.07;;;;;;;30.19;74.89;100571.06;4906479;28;69735;-34
2023/08/28 00:15:11;;;;;;;49.67;16.42;;;;;;;30.26;75.83;100561.06;4909853;28;65467;-33
2023/08/28 00:17:41;;;;;;;47.67;16.80;;;;;;;30.31;75.56;100562.25;4921225;28;70235;-33
2023/08/28 00:20:12;;;;;;;33.00;15.60;;;;;;;30.37;75.49;100567.63;4911031;28;67097;-32
2023/08/28 00:22:43;;;;;;;50.55;14.75;;;;;;;30.42;75.58;100570.47;4920037;28;71413;-34
2023/08/28 00:25:13;;;;;;;26.08;11.93;;;;;;;30.35;75.80;100549.94;4911459;28;66194;-33
2023/08/28 00:27:44;;;;;;;18.30;10.80;;;;;;;30.43;70.90;100571.28;4916081;28;71056;-34
2023/08/28 00:30:14;;;;;;;12.73;10.00;;;;;;;30.41;70.36;100578.81;4906356;28;65317;-34
2023/08/28 00:32:44;;;;;;;18.15;9.48;;;;;;;30.36;70.13;100565.13;4914683;28;71106;-33
2023/08/28 00:35:14;;;;;;;18.02;10.32;;;;;;;30.40;70.06;100577.97;4907354;28;66152;-33
2023/08/28 00:37:45;;;;;;;14.38;8.90;;;;;;;30.46;69.81;100587.91;4917702;28;69623;-32
2023/08/28 00:40:16;;;;;;;;;;;;;;;30.19;73.35;100587.31;4894124;28;66435;-33
2023/08/28 00:42:46;;;;;;;13.02;8.02;;;;;;;30.47;69.91;100588.72;4912134;28;70417;-34
2023/08/28 00:45:16;;;;;;;12.38;8.25;;;;;;;30.47;69.66;100588.72;4895918;28;66506;-35
2023/08/28 00:47:46;;;;;;;14.63;8.23;;;;;;;30.51;69.29;100589.94;4911222;28;70212;-33
2023/08/28 00:50:17;;;;;;;12.02;7.95;;;;;;;30.56;68.74;100595.50;4903121;28;66244;-33
2023/08/28 00:52:47;;;;;;;8.65;7.25;;;;;;;30.56;68.77;100587.38;4915112;28;70666;-34
2023/08/28 00:55:18;;;;;;;12.10;7.63;;;;;;;30.57;68.30;100594.47;4871534;28;66342;-33
2023/08/28 00:57:48;;;;;;;11.70;7.13;;;;;;;30.60;68.07;100594.00;4895223;28;70421;-34
2023/08/28 01:00:19;;;;;;;15.77;7.40;;;;;;;30.61;67.91;100595.66;4899484;28;67646;-33
2023/08/28 01:02:50;;;;;;;8.57;7.25;;;;;;;30.54;67.70;100577.84;4907262;28;69973;-34
2023/08/28 01:05:26;;;;;;;11.10;6.88;;;;;;;30.67;67.60;100605.59;4910749;28;66518;-33
2023/08/28 01:08:07;;;;;;;10.70;7.07;;;;;;;30.46;67.82;100560.03;4907756;28;69974;-33
2023/08/28 01:10:44;;;;;;;9.93;6.75;;;;;;;30.28;67.00;100531.91;4913669;28;66336;-33
2023/08/28 01:13:36;;;;;;;10.13;6.80;;;;;;;30.63;67.90;100598.16;4916225;28;70347;-34
2023/08/28 01:16:07;;;;;;;8.70;6.80;;;;;;;30.70;66.68;100597.03;4891647;28;66332;-35
2023/08/28 01:18:39;;;;;;;7.38;6.68;;;;;;;30.65;66.75;100602.28;4891925;28;68796;-34
2023/08/28 01:21:10;;;;;;;7.17;6.40;;;;;;;30.60;66.48;100591.28;4906155;28;66681;-34
2023/08/28 01:23:55;;;;;;;6.47;5.95;;;;;;;30.31;66.97;100536.00;4896913;28;69695;-33
2023/08/28 01:26:25;;;;;;;8.00;6.78;;;;;;;30.77;66.78;100617.78;4894226;28;66488;-33
2023/08/28 01:28:56;;;;;;;7.13;5.93;;;;;;;30.79;66.28;100618.38;4890246;28;69191;-34
2023/08/28 01:31:27;;;;;;;6.87;6.27;;;;;;;30.78;66.38;100622.13;4916533;28;65464;-33
2023/08/28 01:33:58;;;;;;;7.80;7.00;;;;;;;30.84;66.21;100629.38;4918349;28;70626;-34
2023/08/28 01:36:51;;;;;;;7.90;6.82;;;;;;;30.76;67.13;100629.63;4918145;28;66492;-34
2023/08/28 01:39:29;;;;;;;8.15;6.65;;;;;;;30.73;65.88;100606.56;4893153;28;70666;-34
2023/08/28 01:42:00;;;;;;;10.10;6.55;;;;;;;30.87;66.06;100629.75;4888505;28;66552;-33
2023/08/28 01:44:34;;;;;;;6.85;6.22;;;;;;;30.90;66.01;100632.03;4901853;28;69985;-33
2023/08/28 01:47:04;;;;;;;7.55;6.85;;;;;;;30.92;65.95;100639.91;4902656;28;66138;-34
2023/08/28 01:49:35;;;;;;;;;;;;;;;30.63;67.13;100639.56;4915437;28;70222;-34
2023/08/28 01:52:06;;;;;;;7.22;5.93;;;;;;;30.90;66.06;100636.63;4912388;28;65864;-34
2023/08/28 01:54:37;;;;;;;6.97;6.47;;;;;;;30.94;65.58;100637.81;4908743;28;69762;-33
2023/08/28 01:57:07;;;;;;;6.78;6.05;;;;;;;30.98;65.86;100639.03;4912728;28;65832;-33
2023/08/28 01:59:37;;;;;;;7.20;5.82;;;;;;;30.99;65.73;100640.66;4898236;28;70302;-34
2023/08/28 02:02:07;;;;;;;7.30;6.10;;;;;;;31.02;65.89;100651.03;4916228;28;66534;-33
2023/08/28 02:04:37;;;;;;;6.05;5.45;;;;;;;31.03;65.39;100652.69;4903685;28;70279;-34
2023/08/28 02:07:07;;;;;;;8.20;5.38;;;;;;;31.06;65.64;100646.00;4894948;28;66287;-33
2023/08/28 02:09:37;;;;;;;6.22;5.25;;;;;;;31.07;65.22;100647.66;4917495;28;69916;-34
2023/08/28 02:12:07;;;;;;;8.20;5.55;;;;;;;30.92;65.08;100623.66;4897254;28;66644;-32
2023/08/28 02:14:39;;;;;;;7.82;6.25;;;;;;;31.09;65.76;100646.38;4909543;28;69353;-33
2023/08/28 02:17:09;;;;;;;6.00;5.45;;;;;;;31.13;65.23;100641.31;4909187;28;65866;-33
2023/08/28 02:19:39;;;;;;;5.78;5.15;;;;;;;31.08;65.21;100627.63;4906431;28;69224;-34
2023/08/28 02:22:09;;;;;;;5.97;5.22;;;;;;;31.11;65.13;100644.25;4912903;28;65480;-33
2023/08/28 02:24:40;;;;;;;7.45;5.68;;;;;;;30.97;65.23;100618.38;4918687;28;69911;-33
2023/08/28 02:27:10;;;;;;;5.53;4.75;;;;;;;31.21;64.99;100651.03;4913548;28;67007;-34
2023/08/28 02:29:40;;;;;;;4.93;4.53;;;;;;;30.77;65.20;100560.91;4910027;28;69917;-35
2023/08/28 02:32:11;;;;;;;5.63;4.28;;;;;;;31.26;65.60;100637.59;4890136;28;66283;-33
2023/08/28 02:34:42;;;;;;;4.78;4.13;;;;;;;31.24;65.79;100635.13;4899783;28;70535;-33
2023/08/28 02:37:12;;;;;;;5.53;4.25;;;;;;;31.28;65.54;100643.63;4914476;28;65829;-33
2023/08/28 02:39:43;;;;;;;4.75;4.35;;;;;;;31.31;65.38;100637.75;4919949;28;70595;-35
2023/08/28 02:42:15;;;;;;;8.05;5.18;;;;;;;31.40;67.11;100636.41;4866834;28;66025;-33
2023/08/28 02:44:45;;;;;;;8.95;5.38;;;;;;;31.41;68.78;100627.22;4907798;28;69974;-33
2023/08/28 02:47:15;;;;;;;7.43;4.30;;;;;;;31.43;70.00;100624.28;4898451;28;65643;-36
2023/08/28 02:49:47;;;;;;;7.82;5.25;;;;;;;31.39;69.87;100613.06;4907032;28;70299;-38
2023/08/28 02:52:18;;;;;;;5.18;4.68;;;;;;;31.03;70.12;100560.59;4911549;28;65347;-36
2023/08/28 02:54:48;;;;;;;7.15;4.10;;;;;;;31.34;70.97;100611.03;4892042;28;70061;-34
2023/08/28 02:57:19;;;;;;;5.07;3.92;;;;;;;31.40;69.61;100617.44;4898156;28;65856;-35
2023/08/28 02:59:49;;;;;;;5.95;2.85;;;;;;;31.37;71.33;100615.16;4893295;28;71030;-34
2023/08/28 03:02:21;;;;;;;4.78;3.00;;;;;;;31.41;70.78;100610.13;4911103;28;66318;-36
2023/08/28 03:04:51;;;;;;;4.70;2.72;;;;;;;31.46;70.80;100608.38;4906576;28;70473;-36
2023/08/28 03:07:22;;;;;;;3.70;2.50;;;;;;;31.45;70.71;100600.47;4911234;28;65473;-34
2023/08/28 03:09:53;;;;;;;3.17;2.35;;;;;;;31.51;70.77;100597.69;4890544;28;70226;-36
2023/08/28 03:12:24;;;;;;;2.92;2.13;;;;;;;31.51;71.13;100594.97;4894017;28;66212;-34
2023/08/28 03:14:54;;;;;;;2.92;2.03;;;;;;;31.44;69.79;100569.00;4892072;28;69239;-34
2023/08/28 03:17:24;;;;;;;2.78;2.10;;;;;;;31.54;70.71;100578.25;4908209;28;66419;-34
2023/08/28 03:19:55;;;;;;;2.50;1.73;;;;;;;31.59;71.02;100575.66;4906344;28;69989;-36
2023/08/28 03:22:25;;;;;;;2.90;1.75;;;;;;;31.59;71.24;100575.66;4878271;28;64911;-35
2023/08/28 03:24:56;;;;;;;3.40;1.85;;;;;;;31.65;71.40;100567.63;4907111;28;70044;-34
2023/08/28 03:27:26;;;;;;;1.95;1.70;;;;;;;31.66;71.10;100580.16;4896350;28;66358;-34
2023/08/28 03:29:56;;;;;;;3.63;1.58;;;;;;;31.71;70.89;100574.88;4910429;28;70396;-34
2023/08/28 03:32:26;;;;;;;3.15;1.73;;;;;;;31.71;71.03;100561.31;4905563;28;66153;-34
2023/08/28 03:34:56;;;;;;;2.88;1.83;;;;;;;31.72;70.36;100568.38;4892826;28;69183;-34
2023/08/28 03:37:28;;;;;;;1.50;1.38;;;;;;;31.73;70.38;100559.16;4909924;28;66332;-33
2023/08/28 03:39:58;;;;;;;1.50;1.20;;;;;;;31.77;70.92;100560.34;4909272;28;69585;-33
2023/08/28 03:42:28;;;;;;;1.50;1.35;;;;;;;31.81;69.99;100558.81;4907536;28;66145;-35
2023/08/28 03:44:58;;;;;;;2.05;1.73;;;;;;;31.79;69.67;100545.50;4904492;28;70043;-35
2023/08/28 03:47:29;;;;;;;2.03;1.52;;;;;;;31.86;69.71;100550.81;4915093;28;66649;-35
2023/08/28 03:50:00;;;;;;;3.00;1.50;;;;;;;31.87;69.87;100549.72;4916079;28;69901;-35
2023/08/28 03:52:30;;;;;;;4.50;1.75;;;;;;;31.90;69.94;100552.00;4899485;28;65139;-34
2023/08/28 03:55:00;;;;;;;3.50;1.50;;;;;;;31.90;70.21;100546.59;4914162;28;70351;-34
2023/08/28 03:57:30;;;;;;;2.03;1.27;;;;;;;31.94;70.11;100542.34;4919720;28;66962;-35
2023/08/28 04:00:07;;;;;;;2.22;1.38;;;;;;;31.96;70.40;100542.94;4915197;28;69686;-35
2023/08/28 04:02:41;;;;;;;1.73;1.13;;;;;;;31.98;69.44;100529.97;4914544;28;66506;-35
2023/08/28 04:05:12;;;;;;;1.45;1.08;;;;;;;31.93;69.92;100524.44;4917959;28;70699;-35
2023/08/28 04:07:43;;;;;;;1.83;1.30;;;;;;;32.02;69.87;100530.31;4895869;28;65507;-34
2023/08/28 04:10:13;;;;;;;1.87;0.93;;;;;;;31.92;69.67;100514.63;4909279;28;70320;-34
2023/08/28 04:12:43;;;;;;;1.75;1.15;;;;;;;32.06;68.83;100528.78;4903945;28;66499;-35
2023/08/28 04:15:14;;;;;;;1.80;1.27;;;;;;;32.09;69.00;100519.34;4921320;28;69473;-34
2023/08/28 04:17:45;;;;;;;1.80;1.00;;;;;;;31.80;68.58;100456.81;4903083;28;65658;-35
2023/08/28 04:20:16;;;;;;;2.42;1.08;;;;;;;32.17;68.48;100505.41;4922816;28;70912;-35
2023/08/28 04:22:48;;;;;;;0.82;0.60;;;;;;;32.21;68.07;100517.47;4904535;28;43121;-35
2023/08/28 04:25:19;;;;;;;0.98;0.70;;;;;;;32.20;68.18;100502.22;4918437;28;69828;-35
2023/08/28 04:27:49;;;;;;;1.48;0.75;;;;;;;32.23;67.94;100489.03;4919592;28;66610;-34
2023/08/28 04:30:19;;;;;;;1.00;0.70;;;;;;;32.25;68.26;100486.88;4899938;28;70207;-35
2023/08/28 04:32:49;;;;;;;0.75;0.50;;;;;;;32.30;66.38;100493.50;4894520;28;65655;-35
2023/08/28 04:35:19;;;;;;;0.70;0.50;;;;;;;32.13;64.92;100482.53;4890463;28;69198;-34
2023/08/28 04:37:50;;;;;;;0.50;0.50;;;;;;;31.96;63.07;100471.59;4912538;28;66636;-34
2023/08/28 04:40:21;;;;;;;1.85;0.43;;;;;;;31.93;62.26;100489.16;4899695;28;71014;-35
2023/08/28 04:42:54;;;;;;;3.15;0.60;;;;;;;31.85;61.35;100481.34;4903990;28;65577;-35
2023/08/28 04:45:24;;;;;;;1.55;0.57;;;;;;;31.74;61.39;100479.47;4902947;28;70262;-35
2023/08/28 04:47:54;;;;;;;1.60;0.57;;;;;;;31.69;59.79;100473.94;4909135;28;66289;-38
2023/08/28 04:50:25;;;;;;;2.58;0.65;;;;;;;31.65;59.16;100470.03;4907042;28;69671;-34
2023/08/28 04:52:55;;;;;;;1.45;0.38;;;;;;;31.52;58.35;100458.34;4891317;28;66266;-34
2023/08/28 04:55:27;;;;;;;0.93;0.40;;;;;;;31.50;57.09;100446.91;4906954;28;70171;-36
2023/08/28 04:57:57;;;;;;;0.80;0.40;;;;;;;31.59;56.34;100463.66;4907532;28;65855;-34
2023/08/28 05:00:27;;;;;;;4.97;0.40;;;;;;;31.51;55.34;100448.59;4899850;28;70583;-34
2023/08/28 05:02:58;;;;;;;0.50;0.30;;;;;;;31.52;55.23;100460.25;4912669;28;65487;-33
2023/08/28 05:05:28;;;;;;;0.75;0.25;;;;;;;31.51;54.75;100451.28;4911419;28;69374;-33
2023/08/28 05:07:58;;;;;;;2.13;0.30;;;;;;;31.41;54.16;100426.66;4909425;28;66274;-35
2023/08/28 05:10:29;;;;;;;0.57;0.40;;;;;;;31.45;53.31;100433.25;4912782;28;69429;-34
2023/08/28 05:13:00;;;;;;;0.20;0.20;;;;;;;31.32;52.57;100428.84;4909616;28;65624;-33
2023/08/28 05:15:30;;;;;;;0.30;0.30;;;;;;;31.40;51.94;100438.56;4907892;28;70566;-34
2023/08/28 05:18:01;;;;;;;0.40;0.30;;;;;;;31.38;51.63;100437.97;4907929;28;65917;-34
2023/08/28 05:20:33;;;;;;;0.40;0.30;;;;;;;31.37;51.73;100422.75;4908565;28;69973;-34
2023/08/28 05:23:04;;;;;;;0.75;0.40;;;;;;;31.23;50.95;100407.75;4910499;28;65532;-35
2023/08/28 05:25:34;;;;;;;0.30;0.30;;;;;;;31.25;50.40;100406.44;4908465;28;70372;-34
2023/08/28 05:28:05;;;;;;;0.40;0.30;;;;;;;31.28;50.35;100397.03;4914798;28;66402;-34
2023/08/28 05:30:35;;;;;;;0.30;0.20;;;;;;;31.24;50.76;100398.56;4912628;28;69117;-32
2023/08/28 05:33:06;;;;;;;0.80;0.40;;;;;;;31.28;50.10;100405.16;4918572;28;65998;-34
2023/08/28 05:35:36;;;;;;;0.32;0.30;;;;;;;31.19;49.98;100371.34;4889660;28;70108;-34
2023/08/28 05:38:06;;;;;;;0.30;0.30;;;;;;;31.27;49.96;100379.13;4904237;28;66292;-34
2023/08/28 05:40:37;;;;;;;0.30;0.30;;;;;;;31.28;49.63;100378.88;4914758;28;70349;-36
2023/08/28 05:43:08;;;;;;;0.80;0.50;;;;;;;31.25;49.81;100370.41;4918357;28;66504;-34
2023/08/28 05:45:39;;;;;;;0.50;0.40;;;;;;;31.26;49.21;100356.63;4923152;28;70274;-36
2023/08/28 05:48:09;;;;;;;0.65;0.38;;;;;;;31.27;48.98;100354.75;4921739;28;65684;-34
2023/08/28 05:50:44;;;;;;;0.80;0.40;;;;;;;30.82;48.30;100276.75;4895997;28;70458;-33
2023/08/28 05:53:14;;;;;;;0.40;0.30;;;;;;;31.26;48.29;100342.22;4936327;28;66139;-34
2023/08/28 05:55:45;;;;;;;0.50;0.30;;;;;;;30.83;47.93;100256.75;4897075;28;70158;-39
2023/08/28 05:58:15;;;;;;;0.40;0.30;;;;;;;31.23;47.38;100326.44;4914613;28;67117;-35
2023/08/28 06:00:46;;;;;;;0.20;0.20;;;;;;;31.14;47.70;100291.59;4920722;28;69997;-34
2023/08/28 06:03:16;;;;;;;0.47;0.30;;;;;;;31.24;47.02;100301.03;4905113;28;65032;-36
2023/08/28 06:05:46;;;;;;;0.55;0.30;;;;;;;31.21;46.74;100293.38;4908447;28;70746;-35
2023/08/28 06:08:17;;;;;;;3.60;0.40;;;;;;;31.15;46.82;100270.75;4921081;28;65343;-34
2023/08/28 06:10:48;;;;;;;0.40;0.30;;;;;;;31.25;46.37;100294.53;4924117;28;69880;-33
2023/08/28 06:13:18;;;;;;;0.47;0.30;;;;;;;31.03;46.59;100251.78;4919600;28;65721;-34
2023/08/28 06:15:48;;;;;;;0.63;0.40;;;;;;;31.26;46.13;100288.03;4925179;28;69834;-35
2023/08/28 06:18:18;;;;;;;1.10;0.38;;;;;;;31.30;46.50;100297.34;4906714;28;66030;-34
2023/08/28 06:20:51;;;;;;;4.47;0.35;;;;;;;31.29;46.46;100293.00;4902438;28;69272;-34
2023/08/28 06:23:21;;;;;;;1.17;0.38;;;;;;;31.26;46.30;100293.47;4914846;28;65921;-34
2023/08/28 06:25:51;;;;;;;1.85;0.65;;;;;;;31.32;45.85;100287.13;4906537;28;69328;-34
2023/08/28 06:28:21;;;;;;;0.98;0.40;;;;;;;31.34;46.06;100290.38;4902884;28;66487;-34
2023/08/28 06:30:51;;;;;;;0.40;0.30;;;;;;;31.35;45.77;100271.19;4904109;28;70583;-35
2023/08/28 06:33:23;;;;;;;1.25;0.30;;;;;;;31.32;45.98;100255.41;4908791;28;65790;-35
2023/08/28 06:35:53;;;;;;;0.53;0.30;;;;;;;31.32;45.74;100244.56;4914151;28;69771;-34
2023/08/28 06:38:25;;;;;;;4.20;0.30;;;;;;;31.42;45.30;100265.66;4912380;28;66252;-34
2023/08/28 06:40:55;;;;;;;6.88;0.20;;;;;;;31.34;45.30;100244.31;4912353;28;69883;-34
2023/08/28 06:43:26;;;;;;;0.60;0.30;;;;;;;31.42;45.42;100243.97;4916856;28;66156;-34
2023/08/28 06:45:56;;;;;;;0.77;0.32;;;;;;;31.50;44.98;100249.03;4904931;28;69991;-35
2023/08/28 06:48:26;;;;;;;0.30;0.20;;;;;;;31.52;44.97;100257.75;4910311;28;65618;-33
2023/08/28 06:50:57;;;;;;;0.55;0.20;;;;;;;31.52;44.51;100259.66;4914320;28;69560;-34
2023/08/28 06:53:27;;;;;;;0.68;0.30;;;;;;;31.52;44.75;100265.88;4898898;28;64627;-34
2023/08/28 06:55:57;;;;;;;2.60;0.20;;;;;;;31.55;44.32;100265.41;4911785;28;70699;-34
2023/08/28 06:58:28;;;;;;;1.00;0.20;;;;;;;31.56;44.02;100267.03;4913753;28;66551;-33
2023/08/28 07:00:58;;;;;;;3.40;0.63;;;;;;;31.59;44.07;100265.75;4915533;28;69907;-34
2023/08/28 07:03:28;;;;;;;0.70;0.30;;;;;;;31.59;43.95;100269.31;4898224;28;67014;-34
2023/08/28 07:05:59;;;;;;;0.98;0.20;;;;;;;31.54;43.93;100254.81;4917738;28;69132;-34
2023/08/28 07:08:29;;;;;;;0.50;0.30;;;;;;;31.61;43.80;100264.44;4920149;28;66587;-34
2023/08/28 07:10:59;;;;;;;2.25;0.30;;;;;;;31.63;43.81;100266.09;4912257;28;70848;-34
2023/08/28 07:13:29;;;;;;;0.90;0.30;;;;;;;31.64;44.00;100267.75;4918566;28;66107;-35
2023/08/28 07:16:01;;;;;;;1.23;0.77;;;;;;;31.68;43.80;100263.47;4911439;28;69827;-35
2023/08/28 07:18:31;;;;;;;2.17;0.30;;;;;;;31.66;44.20;100260.19;4918748;28;66273;-34
2023/08/28 07:21:02;;;;;;;0.95;0.38;;;;;;;31.68;44.00;100263.47;4918085;28;70032;-35
2023/08/28 07:23:33;;;;;;;0.75;0.45;;;;;;;31.60;43.29;100246.53;4913614;28;65814;-36
2023/08/28 07:26:03;;;;;;;5.78;0.32;;;;;;;31.72;43.54;100264.66;4921234;28;70079;-35
2023/08/28 07:28:33;;;;;;;0.85;0.50;;;;;;;31.72;43.55;100270.09;4911623;28;66602;-35
2023/08/28 07:31:03;;;;;;;6.82;0.40;;;;;;;31.71;43.37;100263.84;4909824;28;69933;-36
2023/08/28 07:33:34;;;;;;;1.70;0.40;;;;;;;31.75;43.51;100275.03;4914085;28;66788;-36
2023/08/28 07:36:04;;;;;;;0.95;0.52;;;;;;;31.61;43.45;100250.88;4900679;28;69427;-35
2023/08/28 07:38:35;;;;;;;0.95;0.70;;;;;;;31.76;43.33;100292.94;4906451;28;66030;-34
2023/08/28 07:41:05;;;;;;;6.93;1.42;;;;;;;31.74;45.93;100278.81;4914004;28;70630;-35
2023/08/28 07:43:35;;;;;;;2.78;2.55;;;;;;;31.94;50.43;100271.09;4916317;28;66600;-35
2023/08/28 07:46:05;;;;;;;12.65;3.08;;;;;;;32.15;52.01;100285.88;4911656;28;69784;-34
2023/08/28 07:48:35;;;;;;;5.53;3.30;;;;;;;32.17;53.25;100272.03;4916919;28;66523;-35
2023/08/28 07:51:05;;;;;;;5.78;3.92;;;;;;;32.31;57.78;100272.56;4915207;28;70219;-35
2023/08/28 07:53:36;;;;;;;5.28;4.78;;;;;;;32.12;58.88;100234.78;4902800;28;65243;-35
2023/08/28 07:56:06;;;;;;;7.32;4.63;;;;;;;32.51;59.71;100288.41;4919801;28;69579;-35
2023/08/28 07:58:37;;;;;;;5.40;5.00;;;;;;;32.35;60.13;100263.69;4916908;28;65599;-39
2023/08/28 08:01:10;;;;;;;5.78;5.28;;;;;;;32.54;61.97;100304.19;4897996;28;69241;-35
2023/08/28 08:03:41;;;;;;;6.22;5.40;;;;;;;32.56;61.76;100283.06;4913924;28;65005;-35
2023/08/28 08:06:11;;;;;;;6.28;5.72;;;;;;;32.57;62.88;100295.56;4915631;28;69712;-34
2023/08/28 08:08:42;;;;;;;11.82;6.10;;;;;;;32.59;63.03;100288.00;4892591;28;65770;-35
2023/08/28 08:11:13;;;;;;;8.50;7.10;;;;;;;32.62;63.11;100284.78;4915252;28;69842;-34
2023/08/28 08:13:42;;;;;;;8.50;6.60;;;;;;;32.63;64.59;100281.84;4916624;28;65657;-34
2023/08/28 08:16:13;;;;;;;7.78;6.97;;;;;;;32.62;64.37;100268.50;4908525;28;70513;-33
2023/08/28 08:18:43;;;;;;;9.80;6.97;;;;;;;32.67;65.18;100266.69;4896006;29;66207;-33
2023/08/28 08:21:15;;;;;;;7.88;7.07;;;;;;;32.66;65.21;100262.34;4916388;28;69961;-35
2023/08/28 08:23:45;;;;;;;7.45;6.78;;;;;;;32.68;65.57;100264.78;4916023;28;66813;-34
2023/08/28 08:26:16;;;;;;;8.55;6.78;;;;;;;32.67;65.34;100260.44;4919321;28;69428;-34
2023/08/28 08:28:46;;;;;;;7.78;6.32;;;;;;;32.73;64.58;100262.16;4915732;28;65942;-36
2023/08/28 08:31:16;;;;;;;9.90;6.00;;;;;;;32.73;62.74;100235.00;4905235;28;70557;-33
2023/08/28 08:33:46;;;;;;;6.65;6.05;;;;;;;32.86;63.15;100253.69;4917568;28;65498;-34
2023/08/28 08:36:17;;;;;;;6.93;6.22;;;;;;;32.90;63.14;100246.69;4916715;28;70359;-34
2023/08/28 08:38:47;;;;;;;7.50;6.75;;;;;;;32.83;62.45;100227.00;4914879;28;66563;-34
2023/08/28 08:41:17;;;;;;;12.50;5.90;;;;;;;32.99;62.01;100229.94;4912339;28;70172;-33
2023/08/28 08:43:47;;;;;;;5.82;5.22;;;;;;;33.03;62.05;100231.13;4903235;28;66694;-34
2023/08/28 08:46:19;;;;;;;6.45;5.95;;;;;;;33.05;61.66;100224.38;4913139;28;68990;-34
2023/08/28 08:48:53;;;;;;;6.10;5.50;;;;;;;33.00;61.88;100207.19;4912097;28;66698;-34
2023/08/28 08:51:25;;;;;;;6.53;5.93;;;;;;;32.94;61.66;100185.34;4912591;28;71435;-34
2023/08/28 08:54:24;;;;;;;5.75;4.88;;;;;;;32.97;62.35;100197.59;4914259;28;65349;-34
2023/08/28 08:57:00;;;;;;;8.38;6.43;;;;;;;33.11;61.45;100206.25;4913658;28;70296;-34
2023/08/28 08:59:31;;;;;;;5.90;5.50;;;;;;;33.09;61.41;100202.94;4887884;28;66010;-35
2023/08/28 09:02:02;;;;;;;6.07;5.55;;;;;;;33.11;61.65;100225.25;4912208;28;70443;-34
2023/08/28 09:04:33;;;;;;;;;;;;;;;32.86;63.10;100220.25;4922000;28;66210;-33
2023/08/28 09:07:04;;;;;;;9.88;5.70;;;;;;;33.10;61.62;100204.59;4910806;28;70315;-33
2023/08/28 09:09:35;;;;;;;6.13;5.45;;;;;;;33.11;61.45;100195.38;4906351;28;66786;-34
2023/08/28 09:12:06;;;;;;;6.45;5.95;;;;;;;33.13;61.53;100188.63;4903720;28;69834;-33
2023/08/28 09:14:37;;;;;;;10.07;5.53;;;;;;;33.15;61.54;100191.06;4919153;28;66144;-34
2023/08/28 09:17:08;;;;;;;8.52;4.78;;;;;;;33.13;61.47;100196.75;4919720;28;70385;-33
2023/08/28 09:19:38;;;;;;;6.97;5.50;;;;;;;33.15;61.58;100201.94;4923545;28;66406;-34
2023/08/28 09:22:10;;;;;;;7.68;5.35;;;;;;;33.11;61.79;100203.53;4926654;28;69390;-33
2023/08/28 09:24:40;;;;;;;9.00;5.03;;;;;;;33.10;61.56;100210.03;4903241;28;65981;-33
2023/08/28 09:27:13;;;;;;;8.20;6.18;;;;;;;32.76;61.97;100166.59;4919960;28;69705;-33
2023/08/28 09:29:44;;;;;;;6.30;5.70;;;;;;;33.05;61.70;100213.50;4919065;28;66356;-33
2023/08/28 09:32:15;;;;;;;8.48;5.68;;;;;;;32.99;62.12;100202.75;4937223;28;70200;-33
2023/08/28 09:34:45;;;;;;;5.72;5.22;;;;;;;33.11;61.81;100230.69;4922792;28;66779;-34
2023/08/28 09:37:16;;;;;;;6.95;6.25;;;;;;;33.11;61.68;100249.72;4918006;28;70398;-33
2023/08/28 09:40:00;;;;;;;6.70;5.85;;;;;;;33.09;63.07;100262.72;4920342;28;66654;-36
2023/08/28 09:42:31;;;;;;;7.60;6.22;;;;;;;33.08;62.29;100261.91;4926369;28;70732;-34
2023/08/28 09:45:05;;;;;;;6.63;6.03;;;;;;;32.82;62.71;100232.69;4919205;28;65984;-33
2023/08/28 09:47:35;;;;;;;6.50;6.00;;;;;;;33.07;62.84;100278.44;4929374;28;70016;-34
2023/08/28 09:50:06;;;;;;;6.60;6.10;;;;;;;33.07;62.25;100278.44;4912111;28;66553;-37
2023/08/28 09:52:36;;;;;;;7.10;6.55;;;;;;;33.04;62.98;100282.53;4925754;28;70341;-33
2023/08/28 09:55:07;;;;;;;6.63;6.10;;;;;;;33.02;62.32;100279.22;4933405;28;66466;-33
2023/08/28 09:57:45;;;;;;;6.75;6.20;;;;;;;33.01;63.49;100298.47;4939657;28;70523;-35
2023/08/28 10:00:15;;;;;;;7.25;6.28;;;;;;;33.00;62.83;100302.28;4925026;28;67135;-37
2023/08/28 10:02:46;;;;;;;7.78;6.50;;;;;;;32.95;62.64;100275.81;4920264;28;68654;-35
2023/08/28 10:05:18;;;;;;;9.52;6.85;;;;;;;32.97;63.10;100281.81;4913354;28;65694;-35
2023/08/28 10:07:52;;;;;;;6.97;6.28;;;;;;;32.73;63.55;100259.44;4911666;28;70446;-37
2023/08/28 10:10:24;;;;;;;7.40;6.55;;;;;;;32.98;63.43;100307.09;4912093;28;66444;-35
2023/08/28 10:12:54;;;;;;;;;;;;;;;32.70;64.55;100314.25;4916294;28;70396;-33
2023/08/28 10:15:24;;;;;;;8.05;6.35;;;;;;;32.92;63.26;100322.50;4912671;28;66642;-33
2023/08/28 10:17:56;;;;;;;7.47;6.72;;;;;;;32.55;63.31;100270.56;4915957;28;69706;-36
2023/08/28 10:20:28;;;;;;;8.13;6.85;;;;;;;32.90;63.21;100344.50;4920321;28;65872;-34
2023/08/28 10:23:01;;;;;;;6.13;5.72;;;;;;;32.75;63.18;100321.69;4910753;28;69391;-37
2023/08/28 10:25:34;;;;;;;10.35;7.03;;;;;;;32.68;63.22;100327.25;4915019;28;66647;-33
2023/08/28 10:28:06;;;;;;;8.77;6.82;;;;;;;32.78;63.34;100353.78;4911716;28;69820;-34
2023/08/28 10:30:36;;;;;;;;;;;;;;;32.62;64.77;100382.56;4919491;28;66883;-34
2023/08/28 10:33:09;;;;;;;12.15;8.45;;;;;;;32.75;63.92;100327.94;4910357;28;69823;-35
2023/08/28 10:35:44;;;;;;;12.52;8.32;;;;;;;32.58;65.02;100317.06;4912941;28;66355;-35
2023/08/28 10:38:15;;;;;;;9.43;8.55;;;;;;;32.75;66.05;100357.81;4903918;28;69909;-34
2023/08/28 10:40:50;;;;;;;9.27;8.48;;;;;;;32.80;66.50;100395.91;4912980;28;66344;-34
2023/08/28 10:43:22;;;;;;;10.30;9.13;;;;;;;32.74;66.95;100386.03;4913951;28;69935;-37
2023/08/28 10:45:56;;;;;;;9.60;8.60;;;;;;;32.59;67.26;100372.19;4911014;28;65941;-36
2023/08/28 10:48:26;;;;;;;9.07;8.32;;;;;;;32.66;67.60;100389.16;4912728;28;70026;-35
2023/08/28 10:50:57;;;;;;;9.45;8.45;;;;;;;32.57;67.81;100379.72;4912710;28;66793;-35
2023/08/28 10:53:28;;;;;;;8.32;7.50;;;;;;;32.59;68.18;100394.72;4909029;28;69435;-35
2023/08/28 10:56:02;;;;;;;10.00;8.13;;;;;;;32.59;68.24;100394.72;4908839;28;65984;-35
2023/08/28 10:58:40;;;;;;;9.13;7.85;;;;;;;32.58;68.47;100400.41;4912252;28;69154;-35
2023/08/28 11:01:15;;;;;;;10.73;7.53;;;;;;;32.57;68.68;100401.47;4892139;28;65995;-35
2023/08/28 11:03:53;;;;;;;8.15;7.47;;;;;;;32.51;69.25;100407.88;4895678;28;69866;-32
2023/08/28 11:06:46;;;;;;;9.30;7.65;;;;;;;32.51;69.38;100402.44;4912060;28;67038;-33
2023/08/28 11:09:29;;;;;;;8.43;7.82;;;;;;;32.47;69.70;100413.78;4906083;28;70464;-31
2023/08/28 11:12:02;;;;;;;9.80;7.70;;;;;;;32.50;69.50;100396.19;4911343;28;66587;-33
2023/08/28 11:14:34;;;;;;;9.27;7.40;;;;;;;32.47;69.60;100381.22;4919567;28;70035;-37
2023/08/28 11:17:18;;;;;;;8.20;7.32;;;;;;;32.24;70.18;100338.69;4897752;28;67049;-36
2023/08/28 11:19:56;;;;;;;15.27;7.10;;;;;;;32.58;69.72;100392.25;4914636;28;69672;-36
2023/08/28 11:22:29;;;;;;;9.57;6.45;;;;;;;32.54;70.03;100391.94;4912101;28;66448;-37
2023/08/28 11:25:07;;;;;;;6.82;6.18;;;;;;;32.18;69.82;100336.09;4912652;28;70197;-37
2023/08/28 11:27:48;;;;;;;8.05;6.80;;;;;;;32.53;70.57;100400.31;4913097;28;65858;-36
2023/08/28 11:30:20;;;;;;;8.55;6.40;;;;;;;31.79;71.42;100292.47;4911990;28;70334;-36
2023/08/28 11:32:53;;;;;;;9.10;5.70;;;;;;;31.93;70.94;100348.13;4912544;28;66750;-36
2023/08/28 11:35:24;;;;;;;8.55;5.55;;;;;;;32.36;70.42;100414.63;4915018;28;68989;-38
2023/08/28 11:37:56;;;;;;;6.72;5.55;;;;;;;32.41;70.24;100419.34;4912206;28;65724;-37
2023/08/28 11:40:27;;;;;;;6.40;5.32;;;;;;;32.43;69.86;100426.19;4925024;28;69334;-36
2023/08/28 11:43:08;;;;;;;7.15;5.70;;;;;;;32.47;69.96;100419.22;4921718;28;66189;-36